createdAt,value
2019-03-23T00:00:11.810Z,25.90
2019-03-23T00:02:40.760Z,21.40
2019-03-23T00:05:10.250Z,22.37
2019-03-23T00:07:39.234Z,21.47
2019-03-23T00:10:11.050Z,22.00
2019-03-23T00:12:40.022Z,22.83
2019-03-23T00:15:12.024Z,28.13
2019-03-23T00:17:43.307Z,27.80
2019-03-23T00:20:14.137Z,30.73
2019-03-23T00:22:43.174Z,29.50
2019-03-23T00:25:12.096Z,24.47
2019-03-23T00:27:41.040Z,21.23
2019-03-23T00:30:13.295Z,23.03
2019-03-23T00:32:42.681Z,25.43
2019-03-23T00:35:11.727Z,26.40
2019-03-23T00:37:40.615Z,31.77
2019-03-23T00:40:09.841Z,28.60
2019-03-23T00:42:38.891Z,26.73
2019-03-23T00:45:07.927Z,19.03
2019-03-23T00:47:38.010Z,21.80
2019-03-23T00:50:07.270Z,22.40
2019-03-23T00:52:36.157Z,22.30
2019-03-23T00:55:05.692Z,25.53
2019-03-23T00:57:34.511Z,21.07
2019-03-23T01:00:03.833Z,21.00
2019-03-23T01:02:32.849Z,21.23
2019-03-23T01:05:01.824Z,20.57
2019-03-23T01:07:36.908Z,20.37
2019-03-23T01:10:06.819Z,19.93
2019-03-23T01:12:35.779Z,19.47
2019-03-23T01:15:05.192Z,21.27
2019-03-23T01:17:35.283Z,19.57
2019-03-23T01:20:04.690Z,23.17
2019-03-23T01:22:33.624Z,20.80
2019-03-23T01:25:02.579Z,20.27
2019-03-23T01:27:31.566Z,22.67
2019-03-23T01:30:00.500Z,20.83
2019-03-23T01:32:29.450Z,22.30
2019-03-23T01:34:58.365Z,21.20
2019-03-23T01:37:27.314Z,21.57
2019-03-23T01:39:56.419Z,22.13
2019-03-23T01:42:25.923Z,22.97
2019-03-23T01:44:54.779Z,16.67
2019-03-23T01:47:25.958Z,18.40
2019-03-23T01:49:54.841Z,18.45
2019-03-23T01:52:24.517Z,20.77
2019-03-23T01:54:53.474Z,21.53
2019-03-23T01:57:22.413Z,20.85
2019-03-23T01:59:51.989Z,21.43
2019-03-23T02:02:21.267Z,19.17
2019-03-23T02:04:50.273Z,23.15
2019-03-23T02:07:19.191Z,22.13
2019-03-23T02:09:48.158Z,22.10
2019-03-23T02:12:17.065Z,21.17
2019-03-23T02:14:46.049Z,17.97
2019-03-23T02:17:15.901Z,21.43
2019-03-23T02:19:45.979Z,23.40
2019-03-23T02:22:14.929Z,19.95
2019-03-23T02:24:43.852Z,23.13
2019-03-23T02:27:12.766Z,18.73
2019-03-23T02:29:41.693Z,19.53
2019-03-23T02:32:10.705Z,21.60
2019-03-23T02:34:39.656Z,19.00
2019-03-23T02:37:09.973Z,15.03
2019-03-23T02:39:38.938Z,16.20
2019-03-23T02:42:07.931Z,17.30
2019-03-23T02:44:36.840Z,16.07
2019-03-23T02:47:05.730Z,15.98
2019-03-23T02:49:34.762Z,15.35
2019-03-23T02:52:03.795Z,20.72
2019-03-23T02:54:32.735Z,13.40
2019-03-23T02:57:01.680Z,15.70
2019-03-23T02:59:30.702Z,14.98
2019-03-23T03:01:59.641Z,14.40
2019-03-23T03:04:28.609Z,14.10
2019-03-23T03:06:59.691Z,13.60
2019-03-23T03:09:31.033Z,12.90
2019-03-23T03:11:59.979Z,15.00
2019-03-23T03:14:28.935Z,17.70
2019-03-23T03:17:00.357Z,14.10
2019-03-23T03:19:29.571Z,15.35
2019-03-23T03:21:58.430Z,23.40
2019-03-23T03:24:27.384Z,16.65
2019-03-23T03:26:56.317Z,12.40
2019-03-23T03:29:25.200Z,14.00
2019-03-23T03:31:54.136Z,15.35
2019-03-23T03:34:23.096Z,16.02
2019-03-23T03:36:52.090Z,15.65
2019-03-23T03:39:21.482Z,15.45
2019-03-23T03:41:50.457Z,13.08
2019-03-23T03:44:19.483Z,18.07
2019-03-23T03:46:48.373Z,15.48
2019-03-23T03:49:17.420Z,14.87
2019-03-23T03:51:46.393Z,14.55
2019-03-23T03:54:15.332Z,13.20
2019-03-23T03:56:44.300Z,15.98
2019-03-23T03:59:13.314Z,17.92
2019-03-23T04:01:42.253Z,12.90
2019-03-23T04:04:11.137Z,13.25
2019-03-23T04:06:40.080Z,11.55
2019-03-23T04:09:09.093Z,11.95
2019-03-23T04:11:38.046Z,13.08
2019-03-23T04:14:06.943Z,16.82
2019-03-23T04:16:35.935Z,14.38
2019-03-23T04:19:08.483Z,13.25
2019-03-23T04:21:37.427Z,15.45
2019-03-23T04:24:06.395Z,14.80
2019-03-23T04:26:35.474Z,11.83
2019-03-23T04:29:04.408Z,13.58
2019-03-23T04:31:36.179Z,14.58
2019-03-23T04:34:05.139Z,14.00
2019-03-23T04:36:35.569Z,12.82
2019-03-23T04:39:07.375Z,11.63
2019-03-23T04:41:36.324Z,13.83
2019-03-23T04:44:05.296Z,11.55
2019-03-23T04:46:34.262Z,13.68
2019-03-23T04:49:03.263Z,13.90
2019-03-23T04:51:35.095Z,15.03
2019-03-23T04:54:07.057Z,12.70
2019-03-23T04:56:36.041Z,12.98
2019-03-23T04:59:05.268Z,17.32
2019-03-23T05:01:34.208Z,14.15
2019-03-23T05:04:03.607Z,12.15
2019-03-23T05:06:32.563Z,13.40
2019-03-23T05:09:01.521Z,13.22
2019-03-23T05:11:30.500Z,13.32
2019-03-23T05:13:59.411Z,12.28
2019-03-23T05:16:30.891Z,14.78
2019-03-23T05:19:04.675Z,13.85
2019-03-23T05:21:33.616Z,12.53
2019-03-23T05:24:02.467Z,14.80
2019-03-23T05:26:31.455Z,14.78
2019-03-23T05:29:00.423Z,13.28
2019-03-23T05:31:29.419Z,14.05
2019-03-23T05:33:58.342Z,12.88
2019-03-23T05:36:30.259Z,15.35
2019-03-23T05:38:59.208Z,15.55
2019-03-23T05:41:30.854Z,16.42
2019-03-23T05:43:59.403Z,16.27
2019-03-23T05:46:28.444Z,14.18
2019-03-23T05:48:57.386Z,18.02
2019-03-23T05:51:32.312Z,15.80
2019-03-23T05:54:01.294Z,17.00
2019-03-23T05:56:30.258Z,15.63
2019-03-23T05:58:59.222Z,15.50
2019-03-23T06:01:28.182Z,15.58
2019-03-23T06:03:57.134Z,17.70
2019-03-23T06:06:26.073Z,15.00
2019-03-23T06:08:55.584Z,15.95
2019-03-23T06:11:25.877Z,14.65
2019-03-23T06:14:13.681Z,19.47
2019-03-23T06:16:42.657Z,17.62
2019-03-23T06:19:11.583Z,18.40
2019-03-23T06:21:42.678Z,18.50
2019-03-23T06:24:11.613Z,21.63
2019-03-23T06:26:40.557Z,16.23
2019-03-23T06:29:12.140Z,14.53
2019-03-23T06:31:41.107Z,17.83
2019-03-23T06:34:10.227Z,19.77
2019-03-23T06:36:39.364Z,20.70
2019-03-23T06:39:08.467Z,20.27
2019-03-23T06:41:37.682Z,23.40
2019-03-23T06:44:07.059Z,17.17
2019-03-23T06:46:36.273Z,18.47
2019-03-23T06:49:05.582Z,17.47
2019-03-23T06:51:34.623Z,15.77
2019-03-23T06:54:03.541Z,18.03
2019-03-23T06:56:32.529Z,14.73
2019-03-23T06:59:01.398Z,13.80
2019-03-23T07:01:30.359Z,15.33
2019-03-23T07:03:59.300Z,15.63
2019-03-23T07:06:28.277Z,16.13
2019-03-23T07:08:57.210Z,15.50
2019-03-23T07:11:26.131Z,15.53
2019-03-23T07:13:55.085Z,14.67
2019-03-23T07:16:24.903Z,15.03
2019-03-23T07:19:01.204Z,16.37
2019-03-23T07:21:30.159Z,21.17
2019-03-23T07:23:59.151Z,19.27
2019-03-23T07:26:28.861Z,15.47
2019-03-23T07:28:58.334Z,16.67
2019-03-23T07:31:27.275Z,21.83
2019-03-23T07:33:58.278Z,21.27
2019-03-23T07:36:27.265Z,17.43
2019-03-23T07:38:56.572Z,19.50
2019-03-23T07:41:27.919Z,17.03
2019-03-23T07:43:56.830Z,20.73
2019-03-23T07:46:25.759Z,16.03
2019-03-23T07:48:54.662Z,17.17
2019-03-23T07:51:23.617Z,15.03
2019-03-23T07:53:54.609Z,19.03
2019-03-23T07:56:26.672Z,18.40
2019-03-23T07:58:55.644Z,14.07
2019-03-23T08:01:24.607Z,14.90
2019-03-23T08:03:53.528Z,15.77
2019-03-23T08:06:22.536Z,16.23
2019-03-23T08:08:51.510Z,18.13
2019-03-23T08:11:20.473Z,20.07
2019-03-23T08:13:52.705Z,20.63
2019-03-23T08:16:21.763Z,18.50
2019-03-23T08:18:50.750Z,16.47
2019-03-23T08:21:19.907Z,24.90
2019-03-23T08:23:49.589Z,18.20
2019-03-23T08:26:19.030Z,21.23
2019-03-23T08:28:47.963Z,19.13
2019-03-23T08:31:16.930Z,20.33
2019-03-23T08:33:45.902Z,21.20
2019-03-23T08:36:17.149Z,21.20
2019-03-23T08:38:48.413Z,21.07
2019-03-23T08:41:17.361Z,23.90
2019-03-23T08:43:46.334Z,24.63
2019-03-23T08:46:15.668Z,20.83
2019-03-23T08:48:44.591Z,22.60
2019-03-23T08:51:16.554Z,26.10
2019-03-23T08:53:45.576Z,25.17
2019-03-23T08:56:14.557Z,23.37
2019-03-23T08:58:43.011Z,23.40
2019-03-23T09:01:11.959Z,22.33
2019-03-23T09:03:51.654Z,25.07
2019-03-23T09:06:13.356Z,25.80
2019-03-23T09:08:42.321Z,26.07
2019-03-23T09:11:20.157Z,27.20
2019-03-23T09:13:42.858Z,26.90
2019-03-23T09:16:11.929Z,25.80
2019-03-23T09:18:42.853Z,28.57
2019-03-23T09:21:15.467Z,29.70
2019-03-23T09:23:44.534Z,27.80
2019-03-23T09:26:13.795Z,27.97
2019-03-23T09:28:44.798Z,26.40
2019-03-23T09:31:13.537Z,28.83
2019-03-23T09:33:42.521Z,27.77
2019-03-23T09:36:11.446Z,33.73
2019-03-23T09:38:40.403Z,31.60
2019-03-23T09:41:09.362Z,28.80
2019-03-23T09:43:38.399Z,32.67
2019-03-23T09:46:08.003Z,31.20
2019-03-23T09:48:37.029Z,31.43
2019-03-23T09:51:06.120Z,29.70
2019-03-23T09:53:35.088Z,29.77
2019-03-23T09:56:03.909Z,29.30
2019-03-23T09:58:33.354Z,32.53
2019-03-23T10:01:02.393Z,34.10
2019-03-23T10:03:31.308Z,27.67
2019-03-23T10:06:00.274Z,32.50
2019-03-23T10:08:32.135Z,33.13
2019-03-23T10:11:04.132Z,31.80
2019-03-23T10:13:33.107Z,33.57
2019-03-23T10:16:02.061Z,30.03
2019-03-23T10:18:31.052Z,31.70
2019-03-23T10:20:59.893Z,32.73
2019-03-23T10:23:32.383Z,32.00
2019-03-23T10:26:01.855Z,30.37
2019-03-23T10:28:31.138Z,31.33
2019-03-23T10:31:00.083Z,31.13
2019-03-23T10:33:29.027Z,32.73
2019-03-23T10:35:58.006Z,29.50
2019-03-23T10:38:26.982Z,30.47
2019-03-23T10:40:55.933Z,32.53
2019-03-23T10:43:24.823Z,30.13
2019-03-23T10:45:53.787Z,28.70
2019-03-23T10:48:22.845Z,30.33
2019-03-23T10:50:53.177Z,34.13
2019-03-23T10:53:23.298Z,30.80
2019-03-23T10:55:53.448Z,33.43
2019-03-23T10:58:22.522Z,36.50
2019-03-23T11:00:51.482Z,30.97
2019-03-23T11:03:20.373Z,32.87
2019-03-23T11:05:49.326Z,31.97
2019-03-23T11:08:18.475Z,36.77
2019-03-23T11:10:47.411Z,30.80
2019-03-23T11:13:16.421Z,32.20
2019-03-23T11:15:45.427Z,28.90
2019-03-23T11:18:14.434Z,30.77
2019-03-23T11:20:43.300Z,33.30
2019-03-23T11:23:12.267Z,36.77
2019-03-23T11:25:41.114Z,30.60
2019-03-23T11:28:10.055Z,37.27
2019-03-23T11:30:39.090Z,33.13
2019-03-23T11:33:08.034Z,31.17
2019-03-23T11:35:37.011Z,34.47
2019-03-23T11:38:06.123Z,38.83
2019-03-23T11:40:35.258Z,33.43
2019-03-23T11:43:04.277Z,35.13
2019-03-23T11:45:33.117Z,32.43
2019-03-23T11:48:04.173Z,34.20
2019-03-23T11:50:33.186Z,35.93
2019-03-23T11:53:02.423Z,35.13
2019-03-23T11:55:31.380Z,35.07
2019-03-23T11:58:02.427Z,35.63
2019-03-23T12:00:31.399Z,40.43
2019-03-23T12:03:00.513Z,40.60
2019-03-23T12:05:29.470Z,36.73
2019-03-23T12:07:58.460Z,43.10
2019-03-23T12:10:27.389Z,39.10
2019-03-23T12:12:56.207Z,36.23
2019-03-23T12:15:25.118Z,37.57
2019-03-23T12:17:55.570Z,37.73
2019-03-23T12:20:24.651Z,33.87
2019-03-23T12:22:56.549Z,37.67
2019-03-23T12:25:26.905Z,36.77
2019-03-23T12:27:55.803Z,33.50
2019-03-23T12:30:24.782Z,34.00
2019-03-23T12:32:56.504Z,36.17
2019-03-23T12:35:25.338Z,34.57
2019-03-23T12:37:54.218Z,33.97
2019-03-23T12:40:23.929Z,35.83
2019-03-23T12:42:52.893Z,34.37
2019-03-23T12:45:21.806Z,34.70
2019-03-23T12:47:50.768Z,32.43
2019-03-23T12:50:19.697Z,35.83
2019-03-23T12:52:48.687Z,32.87
2019-03-23T12:55:17.600Z,39.53
2019-03-23T12:57:46.977Z,34.60
2019-03-23T13:00:15.913Z,30.87
2019-03-23T13:02:45.031Z,32.07
2019-03-23T13:05:15.552Z,33.03
2019-03-23T13:07:44.530Z,33.87
2019-03-23T13:10:13.692Z,32.27
2019-03-23T13:12:42.883Z,33.43
2019-03-23T13:15:14.330Z,32.00
2019-03-23T13:17:46.057Z,31.97
2019-03-23T13:20:14.977Z,33.67
2019-03-23T13:22:43.930Z,34.70
2019-03-23T13:25:12.880Z,34.57
2019-03-23T13:27:42.313Z,32.07
2019-03-23T13:30:11.566Z,28.83
2019-03-23T13:32:40.480Z,31.33
2019-03-23T13:35:11.881Z,26.40
2019-03-23T13:37:40.911Z,31.70
2019-03-23T13:40:10.053Z,30.93
2019-03-23T13:42:39.024Z,35.60
2019-03-23T13:45:08.461Z,30.10
2019-03-23T13:47:38.837Z,29.13
2019-03-23T13:50:08.203Z,29.40
2019-03-23T13:52:44.576Z,28.67
2019-03-23T13:55:32.441Z,30.03
2019-03-23T13:58:21.480Z,32.73
2019-03-23T14:00:50.834Z,35.03
2019-03-23T14:03:19.813Z,32.10
2019-03-23T14:05:48.761Z,31.60
2019-03-23T14:08:20.491Z,37.23
2019-03-23T14:10:49.472Z,36.97
2019-03-23T14:13:18.420Z,35.97
2019-03-23T14:15:47.381Z,30.97
2019-03-23T14:18:17.573Z,29.30
2019-03-23T14:20:46.797Z,30.87
2019-03-23T14:23:15.839Z,29.53
2019-03-23T14:25:47.674Z,33.70
2019-03-23T14:28:16.604Z,35.43
2019-03-23T14:30:45.515Z,33.50
2019-03-23T14:33:14.486Z,32.67
2019-03-23T14:35:43.397Z,31.80
2019-03-23T14:38:13.009Z,34.87
2019-03-23T14:40:42.025Z,33.63
2019-03-23T14:43:11.215Z,38.27
2019-03-23T14:45:40.097Z,31.97
2019-03-23T14:48:09.434Z,30.77
2019-03-23T14:50:39.500Z,36.37
2019-03-23T14:53:08.484Z,34.80
2019-03-23T14:55:37.593Z,30.33
2019-03-23T14:58:06.597Z,36.63
2019-03-23T15:00:35.804Z,34.67
2019-03-23T15:03:04.833Z,32.73
2019-03-23T15:05:36.237Z,30.13
2019-03-23T15:08:05.270Z,32.23
2019-03-23T15:10:34.223Z,36.57
2019-03-23T15:13:03.166Z,34.13
2019-03-23T15:15:32.107Z,37.17
2019-03-23T15:18:01.096Z,36.50
2019-03-23T15:20:30.048Z,36.47
2019-03-23T15:22:59.018Z,38.33
2019-03-23T15:25:31.093Z,32.80
2019-03-23T15:28:00.121Z,38.53
2019-03-23T15:30:29.061Z,31.93
2019-03-23T15:32:58.039Z,33.43
2019-03-23T15:35:29.889Z,33.83
2019-03-23T15:38:00.382Z,36.97
2019-03-23T15:40:31.609Z,41.13
2019-03-23T15:43:00.529Z,38.50
2019-03-23T15:45:29.487Z,37.37
2019-03-23T15:48:00.323Z,32.03
2019-03-23T15:50:29.251Z,38.43
2019-03-23T15:52:58.192Z,35.73
2019-03-23T15:55:27.118Z,35.93
2019-03-23T15:57:56.091Z,33.53
2019-03-23T16:00:25.017Z,39.40
2019-03-23T16:03:11.449Z,33.87
2019-03-23T16:06:25.930Z,36.43
2019-03-23T16:08:54.989Z,40.50
2019-03-23T16:11:23.929Z,35.97
2019-03-23T16:13:52.981Z,37.23
2019-03-23T16:16:23.408Z,37.43
2019-03-23T16:22:05.510Z,36.73
2019-03-23T16:24:34.472Z,31.03
2019-03-23T16:27:03.453Z,38.23
2019-03-23T16:29:32.448Z,38.30
2019-03-23T16:32:01.446Z,36.53
2019-03-23T16:34:30.451Z,38.67
2019-03-23T16:36:59.393Z,40.50
2019-03-23T16:39:28.364Z,38.57
2019-03-23T16:41:57.304Z,36.00
2019-03-23T16:44:26.271Z,37.37
2019-03-23T16:46:55.190Z,36.90
2019-03-23T16:49:24.651Z,33.70
2019-03-23T16:51:53.501Z,33.07
2019-03-23T16:54:22.532Z,35.80
2019-03-23T16:56:51.538Z,30.70
2019-03-23T16:59:20.565Z,33.07
2019-03-23T17:01:49.538Z,32.30
2019-03-23T17:04:18.528Z,38.47
2019-03-23T17:06:47.374Z,36.87
2019-03-23T17:09:16.377Z,34.60
2019-03-23T17:11:45.302Z,40.27
2019-03-23T17:14:14.274Z,37.37
2019-03-23T17:16:43.309Z,41.47
2019-03-23T17:19:12.284Z,37.70
2019-03-23T17:21:41.271Z,33.33
2019-03-23T17:24:10.207Z,38.70
2019-03-23T17:26:39.213Z,36.03
2019-03-23T17:29:08.192Z,39.43
2019-03-23T17:31:37.161Z,42.63
2019-03-23T17:34:06.149Z,37.67
2019-03-23T17:36:36.413Z,37.97
2019-03-23T17:39:06.317Z,38.57
2019-03-23T17:41:36.154Z,35.93
2019-03-23T17:44:05.054Z,38.60
2019-03-23T17:46:34.022Z,37.30
2019-03-23T17:49:03.047Z,39.53
2019-03-23T17:51:32.093Z,36.97
2019-03-23T17:54:01.151Z,36.37
2019-03-23T17:56:30.271Z,38.73
2019-03-23T17:58:59.227Z,37.00
2019-03-23T18:01:28.233Z,38.77
2019-03-23T18:04:09.183Z,40.70
2019-03-23T18:06:38.142Z,41.53
2019-03-23T18:09:38.249Z,41.50
2019-03-23T18:15:17.034Z,41.20
2019-03-23T18:18:36.547Z,41.77
2019-03-23T18:21:05.533Z,42.80
2019-03-23T18:23:34.494Z,33.13
2019-03-23T18:26:03.446Z,39.47
2019-03-23T18:28:32.432Z,38.20
2019-03-23T18:31:01.433Z,37.97
2019-03-23T18:33:30.285Z,36.80
2019-03-23T18:35:59.234Z,43.83
2019-03-23T18:38:28.209Z,37.93
2019-03-23T18:40:57.176Z,37.83
2019-03-23T18:49:46.295Z,37.00
2019-03-23T18:52:15.237Z,39.23
2019-03-23T18:54:44.208Z,41.07
2019-03-23T18:57:13.174Z,41.80
2019-03-23T18:59:42.075Z,42.13
2019-03-23T19:02:11.044Z,38.73
2019-03-23T19:04:40.033Z,41.13
2019-03-23T19:07:09.014Z,40.93
2019-03-23T19:09:38.015Z,45.10
2019-03-23T19:12:07.025Z,44.27
2019-03-23T19:14:35.938Z,43.53
2019-03-23T19:17:04.994Z,45.67
2019-03-23T19:19:33.944Z,43.13
2019-03-23T19:22:02.986Z,41.00
2019-03-23T19:24:32.034Z,45.47
2019-03-23T19:27:01.036Z,41.60
2019-03-23T19:29:30.040Z,40.00
2019-03-23T19:31:59.041Z,44.40
2019-03-23T19:34:46.827Z,40.90
2019-03-23T19:37:15.759Z,43.40
2019-03-23T19:39:44.753Z,40.93
2019-03-23T19:42:13.736Z,47.07
2019-03-23T19:44:42.705Z,45.83
2019-03-23T19:47:11.709Z,46.80
2019-03-23T19:49:40.696Z,40.63
2019-03-23T19:52:09.728Z,40.03
2019-03-23T19:54:38.836Z,42.33
2019-03-23T19:57:07.878Z,37.27
2019-03-23T19:59:36.973Z,38.73
2019-03-23T20:02:05.952Z,41.03
2019-03-23T20:04:35.020Z,48.17
2019-03-23T20:07:04.098Z,43.23
2019-03-23T20:09:33.123Z,49.20
2019-03-23T20:12:02.140Z,44.43
2019-03-23T20:14:31.110Z,41.33
2019-03-23T20:17:00.124Z,37.40
2019-03-23T20:19:29.114Z,41.90
2019-03-23T20:21:58.165Z,42.83
2019-03-23T20:24:27.206Z,37.43
2019-03-23T20:26:56.135Z,39.03
2019-03-23T20:29:25.133Z,39.83
2019-03-23T20:31:54.269Z,39.20
2019-03-23T20:34:23.275Z,38.63
2019-03-23T20:36:52.271Z,41.63
2019-03-23T20:39:21.319Z,42.83
2019-03-23T20:41:50.403Z,39.73
2019-03-23T20:44:19.349Z,44.50
2019-03-23T20:46:48.353Z,38.70
2019-03-23T20:49:17.391Z,44.47
2019-03-23T20:51:46.565Z,42.40
2019-03-23T20:54:15.519Z,39.67
2019-03-23T20:56:44.522Z,39.77
2019-03-23T20:59:13.588Z,43.77
2019-03-23T21:01:42.537Z,43.03
2019-03-23T21:04:11.492Z,36.93
2019-03-23T21:06:40.484Z,39.23
2019-03-23T21:09:09.465Z,37.13
2019-03-23T21:11:38.437Z,37.10
2019-03-23T21:14:07.537Z,34.07
2019-03-23T21:16:36.514Z,37.90
2019-03-23T21:19:05.510Z,36.47
2019-03-23T21:21:34.447Z,38.57
2019-03-23T21:24:03.465Z,37.93
2019-03-23T21:26:32.540Z,34.20
2019-03-23T21:29:01.496Z,36.77
2019-03-23T21:31:30.527Z,35.57
2019-03-23T21:33:59.478Z,34.77
2019-03-23T21:36:28.457Z,34.23
2019-03-23T21:38:57.421Z,36.47
2019-03-23T21:41:26.459Z,35.30
2019-03-23T21:43:55.453Z,37.90
2019-03-23T21:46:24.434Z,36.53
2019-03-23T21:48:53.452Z,34.90
2019-03-23T21:51:22.410Z,36.33
2019-03-23T21:53:51.457Z,33.07
2019-03-23T21:56:20.553Z,38.87
2019-03-23T21:58:49.575Z,37.20
2019-03-23T22:01:18.644Z,40.47
2019-03-23T22:03:47.601Z,44.40
2019-03-23T22:06:16.633Z,33.83
2019-03-23T22:08:45.613Z,35.23
2019-03-23T22:11:14.548Z,35.53
2019-03-23T22:13:43.597Z,41.70
2019-03-23T22:16:12.581Z,39.67
2019-03-23T22:18:41.543Z,40.03
2019-03-23T22:21:10.528Z,34.27
2019-03-23T22:23:40.721Z,39.03
2019-03-23T22:26:10.640Z,35.40
2019-03-23T22:28:40.058Z,38.20
2019-03-23T22:31:09.364Z,39.20
2019-03-23T22:33:38.659Z,36.83
2019-03-23T22:36:07.892Z,31.53
2019-03-23T22:38:37.038Z,33.60
2019-03-23T22:41:06.256Z,33.03
2019-03-23T22:43:35.384Z,38.17
2019-03-23T22:46:04.489Z,35.67
2019-03-23T22:48:33.799Z,40.97
2019-03-23T22:51:02.937Z,34.40
2019-03-23T22:53:32.268Z,30.00
2019-03-23T22:56:01.781Z,39.60
2019-03-23T22:58:30.838Z,40.97
2019-03-23T23:01:00.045Z,37.40
2019-03-23T23:03:29.199Z,39.57
2019-03-23T23:05:58.357Z,42.93
2019-03-23T23:08:27.435Z,35.70
2019-03-23T23:10:56.614Z,38.90
2019-03-23T23:13:26.135Z,38.33
2019-03-23T23:15:55.389Z,36.87
2019-03-23T23:18:24.497Z,40.03
2019-03-23T23:20:53.477Z,41.40
2019-03-23T23:23:22.694Z,39.67
2019-03-23T23:25:51.785Z,44.77
2019-03-23T23:28:20.907Z,35.77
2019-03-23T23:30:49.967Z,38.47
2019-03-23T23:33:19.477Z,37.33
2019-03-23T23:35:48.542Z,40.53
2019-03-23T23:38:17.700Z,36.13
2019-03-23T23:40:46.573Z,40.87
2019-03-23T23:43:15.664Z,40.77
2019-03-23T23:45:44.595Z,38.33
2019-03-23T23:48:13.529Z,36.50
2019-03-23T23:50:42.543Z,37.80
2019-03-23T23:53:11.507Z,41.23
2019-03-23T23:55:40.474Z,38.87
2019-03-23T23:58:09.445Z,44.33
